sensor_id;sensor_type;location;lat;lon;timestamp;P1;durP1;ratioP1;P2;durP2;ratioP2
58238;SDS011;44037;55.638;37.356;2023-02-28T00:00:11;12.45;;;6.57;;
58238;SDS011;44037;55.638;37.356;2023-02-28T00:02:40;12.57;;;7.10;;
58238;SDS011;44037;55.638;37.356;2023-02-28T00:05:09;13.18;;;7.13;;
58238;SDS011;44037;55.638;37.356;2023-02-28T00:07:38;13.15;;;6.85;;
58238;SDS011;44037;55.638;37.356;2023-02-28T00:10:06;12.43;;;7.25;;
58238;SDS011;44037;55.638;37.356;2023-02-28T00:12:36;14.10;;;7.20;;
58238;SDS011;44037;55.638;37.356;2023-02-28T00:15:05;11.15;;;6.85;;
58238;SDS011;44037;55.638;37.356;2023-02-28T00:17:33;11.45;;;5.93;;
58238;SDS011;44037;55.638;37.356;2023-02-28T00:20:00;12.80;;;7.22;;
58238;SDS011;44037;55.638;37.356;2023-02-28T00:22:37;15.85;;;7.53;;
58238;SDS011;44037;55.638;37.356;2023-02-28T00:25:05;12.15;;;7.43;;
58238;SDS011;44037;55.638;37.356;2023-02-28T00:27:33;12.18;;;6.93;;
58238;SDS011;44037;55.638;37.356;2023-02-28T00:30:02;13.15;;;7.40;;
58238;SDS011;44037;55.638;37.356;2023-02-28T00:32:31;13.48;;;7.20;;
58238;SDS011;44037;55.638;37.356;2023-02-28T00:34:59;12.68;;;6.45;;
58238;SDS011;44037;55.638;37.356;2023-02-28T00:37:29;13.40;;;6.95;;
58238;SDS011;44037;55.638;37.356;2023-02-28T00:39:57;13.88;;;7.32;;
58238;SDS011;44037;55.638;37.356;2023-02-28T00:42:24;12.38;;;6.82;;
58238;SDS011;44037;55.638;37.356;2023-02-28T00:44:51;12.48;;;6.65;;
58238;SDS011;44037;55.638;37.356;2023-02-28T00:47:20;12.63;;;6.53;;
58238;SDS011;44037;55.638;37.356;2023-02-28T00:49:48;12.02;;;6.18;;
58238;SDS011;44037;55.638;37.356;2023-02-28T00:52:15;9.52;;;6.18;;
58238;SDS011;44037;55.638;37.356;2023-02-28T00:54:42;11.45;;;5.90;;
58238;SDS011;44037;55.638;37.356;2023-02-28T00:57:09;13.35;;;6.90;;
58238;SDS011;44037;55.638;37.356;2023-02-28T00:59:36;12.20;;;7.50;;
58238;SDS011;44037;55.638;37.356;2023-02-28T01:02:03;11.38;;;6.63;;
58238;SDS011;44037;55.638;37.356;2023-02-28T01:04:31;12.63;;;6.38;;
58238;SDS011;44037;55.638;37.356;2023-02-28T01:06:59;12.32;;;6.70;;
58238;SDS011;44037;55.638;37.356;2023-02-28T01:09:26;12.18;;;7.57;;
58238;SDS011;44037;55.638;37.356;2023-02-28T01:11:53;10.88;;;6.63;;
58238;SDS011;44037;55.638;37.356;2023-02-28T01:14:20;12.35;;;6.63;;
58238;SDS011;44037;55.638;37.356;2023-02-28T01:16:47;8.20;;;5.78;;
58238;SDS011;44037;55.638;37.356;2023-02-28T01:19:14;11.73;;;6.15;;
58238;SDS011;44037;55.638;37.356;2023-02-28T01:21:43;10.05;;;6.10;;
58238;SDS011;44037;55.638;37.356;2023-02-28T01:24:10;10.25;;;6.05;;
58238;SDS011;44037;55.638;37.356;2023-02-28T01:26:37;11.05;;;6.53;;
58238;SDS011;44037;55.638;37.356;2023-02-28T01:29:04;10.35;;;6.18;;
58238;SDS011;44037;55.638;37.356;2023-02-28T01:31:32;12.80;;;6.35;;
58238;SDS011;44037;55.638;37.356;2023-02-28T01:33:59;9.55;;;5.47;;
58238;SDS011;44037;55.638;37.356;2023-02-28T01:36:26;12.20;;;6.10;;
58238;SDS011;44037;55.638;37.356;2023-02-28T01:38:54;10.57;;;6.10;;
58238;SDS011;44037;55.638;37.356;2023-02-28T01:41:22;10.40;;;5.30;;
58238;SDS011;44037;55.638;37.356;2023-02-28T01:43:54;9.30;;;5.60;;
58238;SDS011;44037;55.638;37.356;2023-02-28T01:46:28;8.07;;;5.28;;
58238;SDS011;44037;55.638;37.356;2023-02-28T01:48:57;11.00;;;6.18;;
58238;SDS011;44037;55.638;37.356;2023-02-28T01:51:30;10.18;;;5.10;;
58238;SDS011;44037;55.638;37.356;2023-02-28T01:54:03;9.35;;;5.57;;
58238;SDS011;44037;55.638;37.356;2023-02-28T01:56:39;8.30;;;5.40;;
58238;SDS011;44037;55.638;37.356;2023-02-28T01:59:10;11.68;;;6.50;;
58238;SDS011;44037;55.638;37.356;2023-02-28T02:01:41;11.40;;;6.95;;
58238;SDS011;44037;55.638;37.356;2023-02-28T02:04:08;11.30;;;6.28;;
58238;SDS011;44037;55.638;37.356;2023-02-28T02:06:37;9.73;;;5.38;;
58238;SDS011;44037;55.638;37.356;2023-02-28T02:09:08;12.70;;;6.13;;
58238;SDS011;44037;55.638;37.356;2023-02-28T02:11:35;12.10;;;6.55;;
58238;SDS011;44037;55.638;37.356;2023-02-28T02:17:16;9.10;;;5.03;;
58238;SDS011;44037;55.638;37.356;2023-02-28T02:19:57;11.00;;;6.43;;
58238;SDS011;44037;55.638;37.356;2023-02-28T02:22:55;12.45;;;6.82;;
58238;SDS011;44037;55.638;37.356;2023-02-28T02:25:39;9.93;;;5.97;;
58238;SDS011;44037;55.638;37.356;2023-02-28T02:28:23;10.68;;;5.35;;
58238;SDS011;44037;55.638;37.356;2023-02-28T02:31:24;11.48;;;7.20;;
58238;SDS011;44037;55.638;37.356;2023-02-28T02:34:08;12.40;;;6.47;;
58238;SDS011;44037;55.638;37.356;2023-02-28T02:37:04;9.90;;;5.15;;
58238;SDS011;44037;55.638;37.356;2023-02-28T02:39:40;12.32;;;6.40;;
58238;SDS011;44037;55.638;37.356;2023-02-28T02:42:14;12.13;;;5.80;;
58238;SDS011;44037;55.638;37.356;2023-02-28T02:44:47;11.05;;;5.90;;
58238;SDS011;44037;55.638;37.356;2023-02-28T02:47:19;11.95;;;6.00;;
58238;SDS011;44037;55.638;37.356;2023-02-28T02:49:52;10.90;;;5.97;;
58238;SDS011;44037;55.638;37.356;2023-02-28T02:52:28;9.32;;;5.13;;
58238;SDS011;44037;55.638;37.356;2023-02-28T02:55:00;9.98;;;5.72;;
58238;SDS011;44037;55.638;37.356;2023-02-28T02:57:32;9.55;;;4.88;;
58238;SDS011;44037;55.638;37.356;2023-02-28T03:00:04;11.25;;;5.85;;
58238;SDS011;44037;55.638;37.356;2023-02-28T03:02:34;9.82;;;4.65;;
58238;SDS011;44037;55.638;37.356;2023-02-28T03:05:06;10.27;;;5.63;;
58238;SDS011;44037;55.638;37.356;2023-02-28T03:07:41;8.27;;;5.10;;
58238;SDS011;44037;55.638;37.356;2023-02-28T03:16:17;7.55;;;4.57;;
58238;SDS011;44037;55.638;37.356;2023-02-28T03:19:01;7.90;;;4.45;;
58238;SDS011;44037;55.638;37.356;2023-02-28T03:21:40;9.02;;;4.63;;
58238;SDS011;44037;55.638;37.356;2023-02-28T03:24:14;8.85;;;4.85;;
58238;SDS011;44037;55.638;37.356;2023-02-28T03:26:50;10.10;;;5.25;;
58238;SDS011;44037;55.638;37.356;2023-02-28T03:29:23;9.18;;;4.70;;
58238;SDS011;44037;55.638;37.356;2023-02-28T03:31:56;9.90;;;4.82;;
58238;SDS011;44037;55.638;37.356;2023-02-28T03:34:29;9.95;;;4.80;;
58238;SDS011;44037;55.638;37.356;2023-02-28T03:37:02;8.27;;;4.88;;
58238;SDS011;44037;55.638;37.356;2023-02-28T03:39:35;8.82;;;4.45;;
58238;SDS011;44037;55.638;37.356;2023-02-28T03:42:06;7.50;;;4.40;;
58238;SDS011;44037;55.638;37.356;2023-02-28T03:44:38;8.32;;;4.65;;
58238;SDS011;44037;55.638;37.356;2023-02-28T03:47:09;9.57;;;5.25;;
58238;SDS011;44037;55.638;37.356;2023-02-28T03:49:40;8.80;;;5.20;;
58238;SDS011;44037;55.638;37.356;2023-02-28T03:52:14;10.02;;;5.03;;
58238;SDS011;44037;55.638;37.356;2023-02-28T03:54:44;9.15;;;4.78;;
58238;SDS011;44037;55.638;37.356;2023-02-28T03:57:17;6.22;;;4.03;;
58238;SDS011;44037;55.638;37.356;2023-02-28T03:59:53;8.55;;;4.57;;
58238;SDS011;44037;55.638;37.356;2023-02-28T04:02:24;7.22;;;3.92;;
58238;SDS011;44037;55.638;37.356;2023-02-28T04:04:51;7.82;;;4.25;;
58238;SDS011;44037;55.638;37.356;2023-02-28T04:07:20;8.82;;;5.07;;
58238;SDS011;44037;55.638;37.356;2023-02-28T04:09:47;7.57;;;4.15;;
58238;SDS011;44037;55.638;37.356;2023-02-28T04:12:14;10.13;;;5.43;;
58238;SDS011;44037;55.638;37.356;2023-02-28T04:14:41;7.68;;;4.88;;
58238;SDS011;44037;55.638;37.356;2023-02-28T04:17:08;7.82;;;4.25;;
58238;SDS011;44037;55.638;37.356;2023-02-28T04:19:35;8.30;;;4.93;;
58238;SDS011;44037;55.638;37.356;2023-02-28T04:22:02;7.82;;;3.75;;
58238;SDS011;44037;55.638;37.356;2023-02-28T04:24:31;7.35;;;4.63;;
58238;SDS011;44037;55.638;37.356;2023-02-28T04:26:58;8.60;;;4.40;;
58238;SDS011;44037;55.638;37.356;2023-02-28T04:29:25;7.30;;;4.03;;
58238;SDS011;44037;55.638;37.356;2023-02-28T04:31:53;6.72;;;3.65;;
58238;SDS011;44037;55.638;37.356;2023-02-28T04:34:23;8.05;;;4.10;;
58238;SDS011;44037;55.638;37.356;2023-02-28T04:36:50;7.57;;;4.45;;
58238;SDS011;44037;55.638;37.356;2023-02-28T04:39:20;8.43;;;5.07;;
58238;SDS011;44037;55.638;37.356;2023-02-28T04:41:49;7.55;;;3.97;;
58238;SDS011;44037;55.638;37.356;2023-02-28T04:44:17;8.05;;;4.47;;
58238;SDS011;44037;55.638;37.356;2023-02-28T04:46:44;6.55;;;3.88;;
58238;SDS011;44037;55.638;37.356;2023-02-28T04:49:11;9.20;;;4.82;;
58238;SDS011;44037;55.638;37.356;2023-02-28T04:51:39;8.45;;;5.00;;
58238;SDS011;44037;55.638;37.356;2023-02-28T04:54:06;8.05;;;4.03;;
58238;SDS011;44037;55.638;37.356;2023-02-28T04:56:34;7.30;;;4.00;;
58238;SDS011;44037;55.638;37.356;2023-02-28T04:59:02;6.38;;;4.20;;
58238;SDS011;44037;55.638;37.356;2023-02-28T05:01:30;7.63;;;4.20;;
58238;SDS011;44037;55.638;37.356;2023-02-28T05:03:59;7.68;;;3.95;;
58238;SDS011;44037;55.638;37.356;2023-02-28T05:06:28;6.97;;;3.63;;
58238;SDS011;44037;55.638;37.356;2023-02-28T05:08:58;7.47;;;4.15;;
58238;SDS011;44037;55.638;37.356;2023-02-28T05:11:26;9.00;;;4.20;;
58238;SDS011;44037;55.638;37.356;2023-02-28T05:13:59;8.45;;;4.75;;
58238;SDS011;44037;55.638;37.356;2023-02-28T05:16:29;6.00;;;3.97;;
58238;SDS011;44037;55.638;37.356;2023-02-28T05:18:56;8.15;;;4.00;;
58238;SDS011;44037;55.638;37.356;2023-02-28T05:21:27;8.55;;;4.25;;
58238;SDS011;44037;55.638;37.356;2023-02-28T05:23:56;7.13;;;4.45;;
58238;SDS011;44037;55.638;37.356;2023-02-28T05:26:24;7.65;;;3.50;;
58238;SDS011;44037;55.638;37.356;2023-02-28T05:28:52;7.97;;;4.20;;
58238;SDS011;44037;55.638;37.356;2023-02-28T05:31:21;7.53;;;4.57;;
58238;SDS011;44037;55.638;37.356;2023-02-28T05:33:48;8.38;;;4.43;;
58238;SDS011;44037;55.638;37.356;2023-02-28T05:36:16;9.35;;;4.45;;
58238;SDS011;44037;55.638;37.356;2023-02-28T05:38:45;7.72;;;4.25;;
58238;SDS011;44037;55.638;37.356;2023-02-28T05:41:13;6.95;;;4.20;;
58238;SDS011;44037;55.638;37.356;2023-02-28T05:43:41;6.47;;;3.80;;
58238;SDS011;44037;55.638;37.356;2023-02-28T05:46:09;8.02;;;4.45;;
58238;SDS011;44037;55.638;37.356;2023-02-28T05:48:39;8.20;;;4.30;;
58238;SDS011;44037;55.638;37.356;2023-02-28T05:51:08;8.52;;;4.50;;
58238;SDS011;44037;55.638;37.356;2023-02-28T05:53:35;7.95;;;4.47;;
58238;SDS011;44037;55.638;37.356;2023-02-28T05:56:03;7.53;;;4.57;;
58238;SDS011;44037;55.638;37.356;2023-02-28T05:58:30;8.68;;;4.80;;
58238;SDS011;44037;55.638;37.356;2023-02-28T06:00:58;8.95;;;4.30;;
58238;SDS011;44037;55.638;37.356;2023-02-28T06:03:27;8.60;;;4.72;;
58238;SDS011;44037;55.638;37.356;2023-02-28T06:05:55;7.88;;;4.57;;
58238;SDS011;44037;55.638;37.356;2023-02-28T06:08:22;6.57;;;3.92;;
58238;SDS011;44037;55.638;37.356;2023-02-28T06:10:49;8.88;;;4.72;;
58238;SDS011;44037;55.638;37.356;2023-02-28T06:13:16;7.47;;;3.78;;
58238;SDS011;44037;55.638;37.356;2023-02-28T06:15:46;6.03;;;3.38;;
58238;SDS011;44037;55.638;37.356;2023-02-28T06:18:13;5.68;;;3.92;;
58238;SDS011;44037;55.638;37.356;2023-02-28T06:20:40;7.43;;;4.43;;
58238;SDS011;44037;55.638;37.356;2023-02-28T06:23:09;6.03;;;3.75;;
58238;SDS011;44037;55.638;37.356;2023-02-28T06:25:36;10.60;;;4.47;;
58238;SDS011;44037;55.638;37.356;2023-02-28T06:28:03;7.38;;;4.60;;
58238;SDS011;44037;55.638;37.356;2023-02-28T06:30:31;7.78;;;3.65;;
58238;SDS011;44037;55.638;37.356;2023-02-28T06:32:58;5.38;;;3.33;;
58238;SDS011;44037;55.638;37.356;2023-02-28T06:35:25;8.50;;;4.35;;
58238;SDS011;44037;55.638;37.356;2023-02-28T06:37:53;6.60;;;3.92;;
58238;SDS011;44037;55.638;37.356;2023-02-28T06:40:21;8.30;;;3.85;;
58238;SDS011;44037;55.638;37.356;2023-02-28T06:42:48;8.65;;;4.03;;
58238;SDS011;44037;55.638;37.356;2023-02-28T06:45:15;5.10;;;3.30;;
58238;SDS011;44037;55.638;37.356;2023-02-28T06:47:42;7.13;;;3.63;;
58238;SDS011;44037;55.638;37.356;2023-02-28T06:50:10;6.22;;;3.30;;
58238;SDS011;44037;55.638;37.356;2023-02-28T06:52:38;6.20;;;3.45;;
58238;SDS011;44037;55.638;37.356;2023-02-28T06:55:06;6.30;;;3.65;;
58238;SDS011;44037;55.638;37.356;2023-02-28T06:57:35;6.65;;;3.40;;
58238;SDS011;44037;55.638;37.356;2023-02-28T07:00:04;11.13;;;6.63;;
58238;SDS011;44037;55.638;37.356;2023-02-28T07:02:34;7.38;;;3.80;;
58238;SDS011;44037;55.638;37.356;2023-02-28T07:05:01;6.05;;;3.60;;
58238;SDS011;44037;55.638;37.356;2023-02-28T07:07:29;6.22;;;3.63;;
58238;SDS011;44037;55.638;37.356;2023-02-28T07:09:57;5.90;;;3.63;;
58238;SDS011;44037;55.638;37.356;2023-02-28T07:12:24;8.70;;;3.45;;
58238;SDS011;44037;55.638;37.356;2023-02-28T07:14:52;6.75;;;4.32;;
58238;SDS011;44037;55.638;37.356;2023-02-28T07:17:21;6.93;;;4.63;;
58238;SDS011;44037;55.638;37.356;2023-02-28T07:19:48;6.18;;;3.78;;
58238;SDS011;44037;55.638;37.356;2023-02-28T07:22:15;7.95;;;4.30;;
58238;SDS011;44037;55.638;37.356;2023-02-28T07:24:42;7.93;;;3.53;;
58238;SDS011;44037;55.638;37.356;2023-02-28T07:27:09;5.07;;;3.58;;
58238;SDS011;44037;55.638;37.356;2023-02-28T07:29:36;8.38;;;3.92;;
58238;SDS011;44037;55.638;37.356;2023-02-28T07:32:05;6.88;;;4.15;;
58238;SDS011;44037;55.638;37.356;2023-02-28T07:34:32;6.85;;;3.78;;
58238;SDS011;44037;55.638;37.356;2023-02-28T07:36:59;45.28;;;19.70;;
58238;SDS011;44037;55.638;37.356;2023-02-28T07:39:28;16.88;;;7.63;;
58238;SDS011;44037;55.638;37.356;2023-02-28T07:41:56;6.78;;;4.13;;
58238;SDS011;44037;55.638;37.356;2023-02-28T07:44:23;4.90;;;3.10;;
58238;SDS011;44037;55.638;37.356;2023-02-28T07:46:50;4.10;;;3.20;;
58238;SDS011;44037;55.638;37.356;2023-02-28T07:49:19;7.75;;;3.60;;
58238;SDS011;44037;55.638;37.356;2023-02-28T07:51:46;5.65;;;3.47;;
58238;SDS011;44037;55.638;37.356;2023-02-28T07:54:14;6.07;;;3.40;;
58238;SDS011;44037;55.638;37.356;2023-02-28T07:56:41;7.22;;;4.07;;
58238;SDS011;44037;55.638;37.356;2023-02-28T07:59:08;5.57;;;3.88;;
58238;SDS011;44037;55.638;37.356;2023-02-28T08:01:35;9.32;;;3.35;;
58238;SDS011;44037;55.638;37.356;2023-02-28T08:04:03;5.70;;;3.15;;
58238;SDS011;44037;55.638;37.356;2023-02-28T08:06:31;6.22;;;3.15;;
58238;SDS011;44037;55.638;37.356;2023-02-28T08:08:58;4.95;;;3.15;;
58238;SDS011;44037;55.638;37.356;2023-02-28T08:11:26;6.40;;;3.10;;
58238;SDS011;44037;55.638;37.356;2023-02-28T08:13:54;6.78;;;3.10;;
58238;SDS011;44037;55.638;37.356;2023-02-28T08:16:21;7.20;;;3.70;;
58238;SDS011;44037;55.638;37.356;2023-02-28T08:18:48;4.97;;;3.40;;
58238;SDS011;44037;55.638;37.356;2023-02-28T08:21:16;6.70;;;3.08;;
58238;SDS011;44037;55.638;37.356;2023-02-28T08:23:45;4.15;;;3.28;;
58238;SDS011;44037;55.638;37.356;2023-02-28T08:26:13;4.22;;;2.53;;
58238;SDS011;44037;55.638;37.356;2023-02-28T08:28:40;4.40;;;2.85;;
58238;SDS011;44037;55.638;37.356;2023-02-28T08:31:08;5.82;;;3.38;;
58238;SDS011;44037;55.638;37.356;2023-02-28T08:33:36;6.53;;;3.80;;
58238;SDS011;44037;55.638;37.356;2023-02-28T08:36:04;6.47;;;3.72;;
58238;SDS011;44037;55.638;37.356;2023-02-28T08:38:32;5.25;;;3.42;;
58238;SDS011;44037;55.638;37.356;2023-02-28T08:41:01;8.20;;;3.40;;
58238;SDS011;44037;55.638;37.356;2023-02-28T08:43:31;3.75;;;2.67;;
58238;SDS011;44037;55.638;37.356;2023-02-28T08:45:58;5.20;;;3.30;;
58238;SDS011;44037;55.638;37.356;2023-02-28T08:48:25;5.82;;;3.05;;
58238;SDS011;44037;55.638;37.356;2023-02-28T08:50:57;5.35;;;2.92;;
58238;SDS011;44037;55.638;37.356;2023-02-28T08:53:25;6.03;;;3.10;;
58238;SDS011;44037;55.638;37.356;2023-02-28T08:55:55;5.18;;;3.05;;
58238;SDS011;44037;55.638;37.356;2023-02-28T08:58:25;3.63;;;2.13;;
58238;SDS011;44037;55.638;37.356;2023-02-28T09:00:53;5.38;;;2.65;;
58238;SDS011;44037;55.638;37.356;2023-02-28T09:03:20;4.65;;;2.55;;
58238;SDS011;44037;55.638;37.356;2023-02-28T09:05:51;6.72;;;2.60;;
58238;SDS011;44037;55.638;37.356;2023-02-28T09:08:19;3.92;;;2.60;;
58238;SDS011;44037;55.638;37.356;2023-02-28T09:10:46;6.18;;;3.17;;
58238;SDS011;44037;55.638;37.356;2023-02-28T09:13:13;7.15;;;2.90;;
58238;SDS011;44037;55.638;37.356;2023-02-28T09:15:42;7.00;;;3.35;;
58238;SDS011;44037;55.638;37.356;2023-02-28T09:18:09;6.57;;;3.65;;
58238;SDS011;44037;55.638;37.356;2023-02-28T09:20:37;8.40;;;3.40;;
58238;SDS011;44037;55.638;37.356;2023-02-28T09:23:04;11.25;;;4.00;;
58238;SDS011;44037;55.638;37.356;2023-02-28T09:25:31;10.60;;;3.85;;
58238;SDS011;44037;55.638;37.356;2023-02-28T09:27:59;9.40;;;4.07;;
58238;SDS011;44037;55.638;37.356;2023-02-28T09:30:26;7.18;;;4.25;;
58238;SDS011;44037;55.638;37.356;2023-02-28T09:32:55;9.13;;;4.03;;
58238;SDS011;44037;55.638;37.356;2023-02-28T09:35:22;6.53;;;3.97;;
58238;SDS011;44037;55.638;37.356;2023-02-28T09:37:52;5.97;;;3.85;;
58238;SDS011;44037;55.638;37.356;2023-02-28T09:40:20;7.50;;;3.60;;
58238;SDS011;44037;55.638;37.356;2023-02-28T09:42:50;6.93;;;3.88;;
58238;SDS011;44037;55.638;37.356;2023-02-28T09:45:21;5.85;;;3.78;;
58238;SDS011;44037;55.638;37.356;2023-02-28T09:47:51;7.75;;;3.95;;
58238;SDS011;44037;55.638;37.356;2023-02-28T09:50:29;6.95;;;3.28;;
58238;SDS011;44037;55.638;37.356;2023-02-28T09:53:00;6.85;;;3.80;;
58238;SDS011;44037;55.638;37.356;2023-02-28T09:55:31;7.70;;;4.18;;
58238;SDS011;44037;55.638;37.356;2023-02-28T09:58:04;6.60;;;4.00;;
58238;SDS011;44037;55.638;37.356;2023-02-28T10:00:33;6.65;;;3.95;;
58238;SDS011;44037;55.638;37.356;2023-02-28T10:03:15;7.72;;;3.75;;
58238;SDS011;44037;55.638;37.356;2023-02-28T10:05:52;6.35;;;3.83;;
58238;SDS011;44037;55.638;37.356;2023-02-28T10:08:26;5.45;;;3.50;;
58238;SDS011;44037;55.638;37.356;2023-02-28T10:10:57;5.75;;;3.20;;
58238;SDS011;44037;55.638;37.356;2023-02-28T10:13:31;6.20;;;2.63;;
58238;SDS011;44037;55.638;37.356;2023-02-28T10:16:01;4.85;;;2.90;;
58238;SDS011;44037;55.638;37.356;2023-02-28T10:18:34;5.22;;;3.20;;
58238;SDS011;44037;55.638;37.356;2023-02-28T10:21:10;4.78;;;3.20;;
58238;SDS011;44037;55.638;37.356;2023-02-28T10:23:45;8.18;;;3.50;;
58238;SDS011;44037;55.638;37.356;2023-02-28T10:26:14;7.07;;;3.97;;
58238;SDS011;44037;55.638;37.356;2023-02-28T10:28:42;5.90;;;3.17;;
58238;SDS011;44037;55.638;37.356;2023-02-28T10:31:11;8.43;;;5.03;;
58238;SDS011;44037;55.638;37.356;2023-02-28T10:33:42;10.98;;;4.75;;
58238;SDS011;44037;55.638;37.356;2023-02-28T10:36:10;10.35;;;3.90;;
58238;SDS011;44037;55.638;37.356;2023-02-28T10:38:42;12.68;;;6.68;;
58238;SDS011;44037;55.638;37.356;2023-02-28T10:41:10;11.80;;;4.80;;
58238;SDS011;44037;55.638;37.356;2023-02-28T10:43:40;7.80;;;4.47;;
58238;SDS011;44037;55.638;37.356;2023-02-28T10:46:12;8.60;;;4.40;;
58238;SDS011;44037;55.638;37.356;2023-02-28T10:48:59;7.65;;;4.55;;
58238;SDS011;44037;55.638;37.356;2023-02-28T10:51:34;10.38;;;4.60;;
58238;SDS011;44037;55.638;37.356;2023-02-28T10:54:03;8.20;;;4.15;;
58238;SDS011;44037;55.638;37.356;2023-02-28T10:56:31;7.53;;;4.70;;
58238;SDS011;44037;55.638;37.356;2023-02-28T10:58:59;7.95;;;5.00;;
58238;SDS011;44037;55.638;37.356;2023-02-28T11:01:35;9.02;;;5.10;;
58238;SDS011;44037;55.638;37.356;2023-02-28T11:04:13;9.48;;;4.70;;
58238;SDS011;44037;55.638;37.356;2023-02-28T11:06:44;11.02;;;5.38;;
58238;SDS011;44037;55.638;37.356;2023-02-28T11:09:18;6.75;;;4.50;;
58238;SDS011;44037;55.638;37.356;2023-02-28T11:11:50;7.53;;;4.38;;
58238;SDS011;44037;55.638;37.356;2023-02-28T11:14:19;8.05;;;4.88;;
58238;SDS011;44037;55.638;37.356;2023-02-28T11:16:48;9.38;;;4.60;;
58238;SDS011;44037;55.638;37.356;2023-02-28T11:19:18;6.68;;;4.43;;
58238;SDS011;44037;55.638;37.356;2023-02-28T11:21:51;8.52;;;4.88;;
58238;SDS011;44037;55.638;37.356;2023-02-28T11:24:22;9.88;;;4.82;;
58238;SDS011;44037;55.638;37.356;2023-02-28T11:26:52;8.40;;;4.65;;
58238;SDS011;44037;55.638;37.356;2023-02-28T11:29:20;5.95;;;3.45;;
58238;SDS011;44037;55.638;37.356;2023-02-28T11:34:44;11.52;;;4.78;;
58238;SDS011;44037;55.638;37.356;2023-02-28T11:37:13;7.15;;;4.95;;
58238;SDS011;44037;55.638;37.356;2023-02-28T11:39:43;9.70;;;5.63;;
58238;SDS011;44037;55.638;37.356;2023-02-28T11:42:14;8.65;;;4.53;;
58238;SDS011;44037;55.638;37.356;2023-02-28T11:45:11;7.72;;;4.20;;
58238;SDS011;44037;55.638;37.356;2023-02-28T11:47:52;9.68;;;5.38;;
58238;SDS011;44037;55.638;37.356;2023-02-28T11:50:36;11.48;;;6.30;;
58238;SDS011;44037;55.638;37.356;2023-02-28T11:53:14;11.32;;;5.97;;
58238;SDS011;44037;55.638;37.356;2023-02-28T11:55:49;9.73;;;5.45;;
58238;SDS011;44037;55.638;37.356;2023-02-28T11:58:25;7.15;;;4.63;;
58238;SDS011;44037;55.638;37.356;2023-02-28T12:03:53;7.03;;;4.13;;
58238;SDS011;44037;55.638;37.356;2023-02-28T12:06:28;8.60;;;5.03;;
58238;SDS011;44037;55.638;37.356;2023-02-28T12:09:02;6.90;;;4.35;;
58238;SDS011;44037;55.638;37.356;2023-02-28T12:11:40;8.68;;;4.53;;
58238;SDS011;44037;55.638;37.356;2023-02-28T12:17:26;6.78;;;4.35;;
58238;SDS011;44037;55.638;37.356;2023-02-28T12:20:13;6.63;;;4.32;;
58238;SDS011;44037;55.638;37.356;2023-02-28T12:22:48;9.70;;;4.75;;
58238;SDS011;44037;55.638;37.356;2023-02-28T12:28:14;8.20;;;5.47;;
58238;SDS011;44037;55.638;37.356;2023-02-28T12:30:46;8.10;;;5.30;;
58238;SDS011;44037;55.638;37.356;2023-02-28T12:33:20;8.40;;;4.80;;
58238;SDS011;44037;55.638;37.356;2023-02-28T12:35:52;8.05;;;4.90;;
58238;SDS011;44037;55.638;37.356;2023-02-28T12:38:24;8.55;;;5.15;;
58238;SDS011;44037;55.638;37.356;2023-02-28T12:40:55;8.77;;;5.38;;
58238;SDS011;44037;55.638;37.356;2023-02-28T12:43:28;7.70;;;4.85;;
58238;SDS011;44037;55.638;37.356;2023-02-28T12:45:59;6.78;;;4.55;;
58238;SDS011;44037;55.638;37.356;2023-02-28T12:48:31;10.23;;;5.72;;
58238;SDS011;44037;55.638;37.356;2023-02-28T12:51:05;7.97;;;4.40;;
58238;SDS011;44037;55.638;37.356;2023-02-28T12:53:38;7.45;;;4.80;;
58238;SDS011;44037;55.638;37.356;2023-02-28T12:56:16;8.15;;;4.72;;
58238;SDS011;44037;55.638;37.356;2023-02-28T12:58:50;11.55;;;5.25;;
58238;SDS011;44037;55.638;37.356;2023-02-28T13:01:26;7.07;;;5.05;;
58238;SDS011;44037;55.638;37.356;2023-02-28T13:07:28;10.73;;;5.32;;
58238;SDS011;44037;55.638;37.356;2023-02-28T13:12:48;8.48;;;4.43;;
58238;SDS011;44037;55.638;37.356;2023-02-28T13:15:17;7.03;;;4.15;;
58238;SDS011;44037;55.638;37.356;2023-02-28T13:17:49;6.70;;;4.47;;
58238;SDS011;44037;55.638;37.356;2023-02-28T13:20:19;8.98;;;4.70;;
58238;SDS011;44037;55.638;37.356;2023-02-28T13:22:48;7.10;;;4.40;;
58238;SDS011;44037;55.638;37.356;2023-02-28T13:34:40;9.45;;;3.90;;
58238;SDS011;44037;55.638;37.356;2023-02-28T13:42:55;5.85;;;2.90;;
58238;SDS011;44037;55.638;37.356;2023-02-28T13:45:24;7.13;;;3.47;;
58238;SDS011;44037;55.638;37.356;2023-02-28T13:47:56;6.57;;;3.50;;
58238;SDS011;44037;55.638;37.356;2023-02-28T13:50:29;6.75;;;3.40;;
58238;SDS011;44037;55.638;37.356;2023-02-28T13:53:02;7.30;;;3.60;;
58238;SDS011;44037;55.638;37.356;2023-02-28T13:55:51;4.43;;;2.92;;
58238;SDS011;44037;55.638;37.356;2023-02-28T13:58:27;6.68;;;3.90;;
58238;SDS011;44037;55.638;37.356;2023-02-28T14:01:08;6.28;;;4.00;;
58238;SDS011;44037;55.638;37.356;2023-02-28T14:03:52;7.32;;;3.75;;
58238;SDS011;44037;55.638;37.356;2023-02-28T14:06:53;7.07;;;4.18;;
58238;SDS011;44037;55.638;37.356;2023-02-28T14:09:24;9.60;;;4.53;;
58238;SDS011;44037;55.638;37.356;2023-02-28T14:11:53;6.88;;;4.35;;
58238;SDS011;44037;55.638;37.356;2023-02-28T14:19:55;7.70;;;4.43;;
58238;SDS011;44037;55.638;37.356;2023-02-28T14:22:41;8.93;;;4.95;;
58238;SDS011;44037;55.638;37.356;2023-02-28T14:25:22;9.07;;;4.88;;
58238;SDS011;44037;55.638;37.356;2023-02-28T14:28:01;9.05;;;5.10;;
58238;SDS011;44037;55.638;37.356;2023-02-28T14:30:57;11.65;;;5.40;;
58238;SDS011;44037;55.638;37.356;2023-02-28T14:33:40;7.28;;;4.68;;
58238;SDS011;44037;55.638;37.356;2023-02-28T14:36:21;7.93;;;4.57;;
58238;SDS011;44037;55.638;37.356;2023-02-28T14:38:53;8.10;;;4.53;;
58238;SDS011;44037;55.638;37.356;2023-02-28T14:41:23;7.32;;;4.07;;
58238;SDS011;44037;55.638;37.356;2023-02-28T14:43:56;7.75;;;4.90;;
58238;SDS011;44037;55.638;37.356;2023-02-28T14:46:26;8.55;;;4.15;;
58238;SDS011;44037;55.638;37.356;2023-02-28T14:49:02;6.63;;;4.30;;
58238;SDS011;44037;55.638;37.356;2023-02-28T14:51:31;9.27;;;4.55;;
58238;SDS011;44037;55.638;37.356;2023-02-28T14:54:00;6.93;;;4.25;;
58238;SDS011;44037;55.638;37.356;2023-02-28T14:56:30;7.75;;;4.60;;
58238;SDS011;44037;55.638;37.356;2023-02-28T14:59:02;6.93;;;3.97;;
58238;SDS011;44037;55.638;37.356;2023-02-28T15:01:30;6.18;;;3.25;;
58238;SDS011;44037;55.638;37.356;2023-02-28T15:04:02;5.95;;;4.03;;
58238;SDS011;44037;55.638;37.356;2023-02-28T15:06:31;6.22;;;3.83;;
58238;SDS011;44037;55.638;37.356;2023-02-28T15:09:13;7.85;;;4.32;;
58238;SDS011;44037;55.638;37.356;2023-02-28T15:11:41;6.90;;;3.65;;
58238;SDS011;44037;55.638;37.356;2023-02-28T15:14:14;5.10;;;3.65;;
58238;SDS011;44037;55.638;37.356;2023-02-28T15:16:46;6.78;;;4.18;;
58238;SDS011;44037;55.638;37.356;2023-02-28T15:19:18;6.40;;;3.65;;
58238;SDS011;44037;55.638;37.356;2023-02-28T15:21:50;6.47;;;4.00;;
58238;SDS011;44037;55.638;37.356;2023-02-28T15:24:30;5.60;;;3.53;;
58238;SDS011;44037;55.638;37.356;2023-02-28T15:27:04;6.72;;;3.75;;
58238;SDS011;44037;55.638;37.356;2023-02-28T15:29:34;5.88;;;3.35;;
58238;SDS011;44037;55.638;37.356;2023-02-28T15:32:16;5.50;;;3.22;;
58238;SDS011;44037;55.638;37.356;2023-02-28T15:34:50;5.90;;;3.30;;
58238;SDS011;44037;55.638;37.356;2023-02-28T15:37:28;5.80;;;3.33;;
58238;SDS011;44037;55.638;37.356;2023-02-28T15:39:58;6.50;;;3.75;;